ADDS METAR Data INFO
IDs: Format: Raw Decoded Include TAF

Data at: 0936 UTC 17 Oct 2017

KPRG 170915Z AUTO 21007KT 10SM CLR 08/04 A3031 RMK AO2 T00760035
KPRG 170855Z AUTO 21007KT 10SM CLR 08/04 A3030 RMK AO2 T00770036
KPRG 170835Z AUTO 21008KT 10SM CLR 08/04 A3030 RMK AO2 T00800036
KPRG 170815Z AUTO 21007KT 10SM CLR 08/04 A3030 RMK AO2 T00770037
KPRG 170755Z AUTO 21007KT 10SM CLR 08/04 A3030 RMK AO2 T00780037
KPRG 170735Z AUTO 21008KT 10SM CLR 08/04 A3030 RMK AO2 T00840040
KPRG 170715Z AUTO 21009KT 10SM CLR 08/04 A3030 RMK AO2 T00820040
KPRG 170655Z AUTO 21007KT 10SM CLR 08/04 A3030 RMK AO2 T00800040
KPRG 170635Z AUTO 21007KT 10SM CLR 08/04 A3030 RMK AO2 T00820041
KPRG 170615Z AUTO 21008KT 10SM CLR 08/04 A3030 RMK AO2 T00820041
KPRG 170555Z AUTO 21007KT 10SM CLR 08/04 A3030 RMK AO2 T00790041 10089 20057 401750029
KPRG 170535Z AUTO 21007KT 10SM CLR 08/04 A3030 RMK AO2 T00810043
KPRG 170515Z AUTO 20007KT 10SM CLR 07/04 A3030 RMK AO2 T00740042
KPRG 170455Z AUTO 21005KT 10SM CLR 07/04 A3030 RMK AO2 T00700037
KPRG 170435Z AUTO 21005KT 10SM CLR 07/04 A3030 RMK AO2 T00670039
KPRG 170415Z AUTO 20004KT 10SM CLR 06/04 A3031 RMK AO2 T00640037
KPRG 170355Z AUTO 19005KT 10SM CLR 06/04 A3031 RMK AO2 T00610036
KPRG 170335Z AUTO 19005KT 10SM CLR 06/04 A3031 RMK AO2 T00630038
KPRG 170315Z AUTO 19005KT 10SM CLR 06/04 A3031 RMK AO2 T00610038
KPRG 170255Z AUTO 19005KT 10SM CLR 06/04 A3030 RMK AO2 T00620036
KPRG 170235Z AUTO 19004KT 10SM CLR 06/04 A3030 RMK AO2 T00600038
KPRG 170215Z AUTO 19003KT 10SM CLR 07/04 A3030 RMK AO2 T00650038
KPRG 170155Z AUTO 19003KT 10SM CLR 06/04 A3030 RMK AO2 T00630040
KPRG 170135Z AUTO 17003KT 10SM CLR 07/04 A3030 RMK AO2 T00670040
KPRG 170110Z AUTO 19003KT 10SM CLR 07/04 A3030 RMK AO2 T00700042
KPRG 170055Z AUTO 18003KT 10SM CLR 07/04 A3030 RMK AO2 T00710041
KPRG 170035Z AUTO 20005KT 10SM CLR 08/04 A3030 RMK AO2 T00800039
KPRG 170015Z AUTO 21004KT 10SM CLR 08/04 A3030 RMK AO2 T00760040
KPRG 162355Z AUTO 21004KT 10SM CLR 09/04 A3029 RMK AO2 T00930039 10175 20093
KPRG 162335Z AUTO 23004KT 10SM CLR 10/04 A3029 RMK AO2 T01040035
KPRG 162315Z AUTO 24005KT 10SM CLR 13/03 A3029 RMK AO2 T01290034
KPRG 162255Z AUTO 26004KT 10SM CLR 15/03 A3029 RMK AO2 T01490034
KPRG 162235Z AUTO 24004KT 10SM CLR 16/04 A3029 RMK AO2 T01600035
KPRG 162215Z AUTO 25006KT 10SM CLR 17/03 A3029 RMK AO2 T01660032
KPRG 162155Z AUTO 24006KT 10SM CLR 17/03 A3029 RMK AO2 T01700028
KPRG 162135Z AUTO 25006KT 10SM CLR 17/03 A3030 RMK AO2 T01700028
KPRG 162115Z AUTO 28004KT 10SM SCT065 17/03 A3030 RMK AO2 T01720028
KPRG 162055Z AUTO 28005KT 10SM SCT065 17/03 A3031 RMK AO2 T01730030
KPRG 162035Z AUTO 26007KT 10SM CLR 18/03 A3031 RMK AO2 T01750030
KPRG 162015Z AUTO 26007KT 10SM CLR 18/03 A3031 RMK AO2 T01750030
KPRG 161955Z AUTO 28005KT 10SM SCT060 17/03 A3032 RMK AO2 T01730031
KPRG 161935Z AUTO 29006KT 10SM SCT060 17/03 A3031 RMK AO2 T01710031
KPRG 161915Z AUTO 31008KT 10SM CLR 17/03 A3032 RMK AO2 T01720034
KPRG 161855Z AUTO 27008KT 10SM CLR 17/03 A3033 RMK AO2 T01660029
KPRG 161835Z AUTO 30003KT 10SM CLR 16/03 A3034 RMK AO2 T01630029
KPRG 161815Z AUTO 28009KT 10SM SCT060 17/03 A3035 RMK AO2 T01650033
KPRG 161755Z AUTO 29003KT 10SM CLR 16/03 A3036 RMK AO2 T01600030 10160 20031
KPRG 161735Z AUTO 27005KT 10SM CLR 16/03 A3037 RMK AO2 T01550034
KPRG 161715Z AUTO 00000KT 10SM CLR 15/03 A3037 RMK AO2 T01500031
KPRG 161655Z AUTO 28005KT 10SM CLR 15/03 A3037 RMK AO2 T01460031
KPRG 161635Z AUTO 27003KT 10SM CLR 14/03 A3038 RMK AO2 T01380033
KPRG 161615Z AUTO 32004KT 10SM CLR 14/05 A3037 RMK AO2 T01410046
KPRG 161555Z AUTO 28004KT 10SM CLR 13/04 A3038 RMK AO2 T01330040
KPRG 161535Z AUTO 31004KT 10SM CLR 12/04 A3039 RMK AO2 T01240038
KPRG 161515Z AUTO 30005KT 10SM CLR 12/05 A3039 RMK AO2 T01180049
KPRG 161455Z AUTO 33006KT 10SM CLR 12/06 A3039 RMK AO2 T01150057
KPRG 161435Z AUTO 31004KT 10SM CLR 10/06 A3039 RMK AO2 T01040060
KPRG 161415Z AUTO 32004KT 10SM CLR 09/06 A3038 RMK AO2 T00930063
KPRG 161355Z AUTO 32004KT 10SM CLR 08/06 A3038 RMK AO2 T00780059
KPRG 161335Z AUTO 31004KT 10SM CLR 07/05 A3037 RMK AO2 T00660052
KPRG 161310Z AUTO 30004KT 10SM CLR 05/05 A3037 RMK AO2 T00530046
KPRG 161255Z AUTO 28004KT 10SM CLR 04/04 A3036 RMK AO2 T00430038
KPRG 161235Z AUTO 29004KT 10SM CLR 04/03 A3036 RMK AO2 T00350032
KPRG 161215Z AUTO 29003KT 10SM CLR 03/03 A3036 RMK AO2 T00310029
KPRG 161155Z AUTO 30004KT 10SM CLR 03/03 A3035 RMK AO2 70004 T00300029 10098 20029
KPRG 161135Z AUTO 29004KT 10SM CLR 03/03 A3035 RMK AO2 T00320030
KPRG 161115Z AUTO 30004KT 10SM CLR 04/03 A3034 RMK AO2 T00350031
KPRG 161055Z AUTO 29004KT 10SM CLR 04/03 A3034 RMK AO2 T00350031
KPRG 161035Z AUTO 29003KT 10SM CLR 04/04 A3033 RMK AO2 T00410035
KPRG 161015Z AUTO 00000KT 10SM CLR 04/04 A3033 RMK AO2 T00430036
KPRG 160955Z AUTO 30004KT 10SM CLR 05/04 A3033 RMK AO2 T00470040
KPRG 160935Z AUTO 31004KT 10SM CLR 05/04 A3032 RMK AO2 T00460040
KPRG 160915Z AUTO 30003KT 10SM CLR 05/04 A3032 RMK AO2 T00530043
KPRG 160855Z AUTO 00000KT 10SM CLR 06/05 A3031 RMK AO2 T00560045
KPRG 160835Z AUTO 31004KT 10SM CLR 06/05 A3031 RMK AO2 T00630048
KPRG 160815Z AUTO 30004KT 10SM CLR 06/05 A3031 RMK AO2 T00640048
KPRG 160755Z AUTO 31005KT 10SM CLR 07/05 A3030 RMK AO2 T00700052
KPRG 160735Z AUTO 30006KT 10SM SCT045 08/06 A3030 RMK AO2 T00750060
KPRG 160715Z AUTO 31006KT 10SM SCT045 08/06 A3030 RMK AO2 T00820061
KPRG 160655Z AUTO 31005KT 10SM CLR 08/06 A3030 RMK AO2 T00810060
KPRG 160635Z AUTO 00000KT 10SM CLR 09/06 A3030 RMK AO2 T00870057
KPRG 160615Z AUTO 32003KT 10SM SCT048 09/06 A3029 RMK AO2 T00870058
KPRG 160555Z AUTO 32004KT 10SM OVC048 10/06 A3030 RMK AO2 T00990060 10121 20099 402270099
KPRG 160535Z AUTO 32006KT 10SM OVC046 10/06 A3029 RMK AO2 T01030063
KPRG 160515Z AUTO 32006KT 10SM OVC048 11/07 A3029 RMK AO2 T01050065
KPRG 160455Z AUTO 32005KT 10SM OVC048 11/07 A3029 RMK AO2 T01050068
KPRG 160435Z AUTO 32007KT 10SM OVC048 11/07 A3029 RMK AO2 T01060066
KPRG 160415Z AUTO 31006KT 10SM OVC046 11/07 A3029 RMK AO2 T01100066
KPRG 160355Z AUTO 32006KT 10SM OVC046 11/07 A3029 RMK AO2 T01100065
KPRG 160335Z AUTO 32008KT 10SM OVC046 11/07 A3029 RMK AO2 T01110066
KPRG 160315Z AUTO 31005KT 10SM OVC046 11/07 A3028 RMK AO2 T01110068
KPRG 160255Z AUTO 31006KT 10SM OVC046 11/07 A3028 RMK AO2 T01120067
KPRG 160235Z AUTO 31006KT 10SM OVC044 11/07 A3027 RMK AO2 T01130067
KPRG 160215Z AUTO 32009KT 10SM OVC042 12/06 A3027 RMK AO2 T01150064
KPRG 160155Z AUTO 32007KT 10SM OVC044 12/07 A3026 RMK AO2 T01150065
KPRG 160135Z AUTO 31008KT 10SM OVC044 12/07 A3025 RMK AO2 T01150065
KPRG 160115Z AUTO 32006KT 10SM OVC044 12/06 A3026 RMK AO2 T01160062
KPRG 160055Z AUTO 33007KT 10SM OVC044 12/06 A3025 RMK AO2 T01170062
KPRG 160035Z AUTO 33008KT 10SM OVC044 12/06 A3024 RMK AO2 T01190060
KPRG 160015Z AUTO 33009G18KT 10SM OVC040 12/06 A3023 RMK AO2 T01200057
KPRG 152355Z AUTO 32009G20KT 10SM OVC042 12/05 A3022 RMK AO2 T01210054 10132 20117
KPRG 152335Z AUTO 33013G17KT 10SM OVC044 12/06 A3021 RMK AO2 T01220060
KPRG 152315Z AUTO 32011G17KT 10SM OVC044 12/06 A3020 RMK AO2 T01220062
KPRG 152255Z AUTO 32012G18KT 10SM OVC042 12/07 A3019 RMK AO2 T01240065
KPRG 152235Z AUTO 32012G18KT 10SM OVC040 13/06 A3019 RMK AO2 T01250060
KPRG 152215Z AUTO 32013G21KT 10SM OVC038 13/06 A3018 RMK AO2 T01270059
KPRG 152155Z AUTO 33015G23KT 10SM OVC038 13/06 A3017 RMK AO2 T01280055